logo
Search for airport 
image banner adimage banner adimage banner ad
image banner ad

LSGS - Sion

Located in Sion, Switzerland

ICAO - LSGS, IATA - SIR

Data provided by Airmate  

General information

Coordinates: N46°13'9" E7°19'37"
Elevation is 1582 feet MSL.
Magnetic variation is 2.083° East
View others Airports in Valais

Operational data

Special qualification required
Current time UTC:
Current local time:
Weather
METAR: LSGS 202220Z AUTO VRB02KT CAVOK 04/M00 Q1021
TAF: TAF LSGS 201425Z 2015/2024 VRB02KT 9999 SCT070
View NOTAMs / SUP AIP / TFR affecting this airport [VIEW]
Communications frequencies: [VIEW]

Runways:

RWY identifierQFULength (ft)Width (ft)SurfaceLDA (ft)
0773°216598GRASS6348
25253°6562131ASPH6365
25 G216598GRASS
07G73°00UNK2165
25G253°00UNK1837

Airport contact information

Address: Sion Switzerland

Handlers

Alpine Jet Service

Alpine Jet Service
[VIEW][VIEW]
+41273273050

Tag Aviation Sa

Tag Aviation Sa

Other aviation service providers

Flight schools

Air-Glaciers Sa

Air-Glaciers Sa

Ecole D'att. Sur Glaciers - Alinair

Ecole D'att. Sur Glaciers - Alinair
olivier.rey@gvm-sion.ch+41795053071
+41795053071

Heli-Alpes Sa

Heli-Alpes Sa
info@helialps.ch+41274524000

Aviation club (not for profit)

Vol À Voile Club Valais

Vol À Voile Club Valais
aymongyn@bluewin.ch+41792792931
+41792792931
Rated:
View ratings:
[VIEW]

Satellite view of LSGS